Time;durP1;ratioP1;P1;durP2;ratioP2;P2;SDS_P1;SDS_P2;PMS_P1;PMS_P2;Temp;Humidity;BMP_temperature;BMP_pressure;BME280_temperature;BME280_humidity;BME280_pressure;Samples;Min_cycle;Max_cycle;Signal;HPM_P1;HPM_P2
2021/01/27 00:02:10;;;;;;;9.48;6.90;;;;;;;2.51;63.53;100337.28;4979339;28;20509;-77
2021/01/27 00:04:35;;;;;;;9.43;7.22;;;;;;;2.58;63.43;100359.66;4977186;28;20026;-77
2021/01/27 00:07:02;;;;;;;8.85;6.40;;;;;;;2.60;63.49;100362.88;4977547;28;20030;-78
2021/01/27 00:09:29;;;;;;;11.02;7.78;;;;;;;2.71;62.67;100362.69;4976819;28;20154;-78
2021/01/27 00:11:56;;;;;;;16.63;11.02;;;;;;;2.73;61.40;100355.78;4976258;28;20030;-77
2021/01/27 00:14:22;;;;;;;18.88;11.82;;;;;;;2.59;62.99;100369.50;4976553;28;20023;-78
2021/01/27 00:16:48;;;;;;;13.40;9.73;;;;;;;2.57;63.54;100371.75;4977000;28;20033;-77
2021/01/27 00:19:16;;;;;;;11.20;7.57;;;;;;;2.53;62.74;100367.19;4976346;28;20046;-77
2021/01/27 00:21:41;;;;;;;7.93;5.75;;;;;;;2.47;60.65;100357.41;4977170;28;20027;-78
2021/01/27 00:24:07;;;;;;;9.60;6.63;;;;;;;2.42;61.48;100350.06;4977428;28;20023;-78
2021/01/27 00:26:33;;;;;;;12.07;6.57;;;;;;;2.50;59.87;100349.34;4977421;28;20027;-77
2021/01/27 00:28:58;;;;;;;14.40;7.40;;;;;;;2.46;60.98;100356.59;4977522;28;20367;-77
2021/01/27 00:31:26;;;;;;;12.07;6.72;;;;;;;2.54;60.99;100350.38;4976967;28;20101;-77
2021/01/27 00:33:52;;;;;;;9.75;5.53;;;;;;;2.51;61.20;100359.25;4976904;28;20026;-77
2021/01/27 00:36:20;;;;;;;8.45;6.03;;;;;;;2.50;61.00;100352.09;4976757;28;20027;-77
2021/01/27 00:38:48;;;;;;;7.82;5.00;;;;;;;2.38;61.99;100348.25;4977972;28;20027;-78
2021/01/27 00:41:13;;;;;;;10.02;6.20;;;;;;;2.34;62.76;100346.13;4976629;28;20023;-78
2021/01/27 00:43:39;;;;;;;9.10;5.93;;;;;;;2.34;62.56;100348.03;4977260;28;20395;-78
2021/01/27 00:46:04;;;;;;;8.43;6.15;;;;;;;2.42;61.59;100352.81;4978440;28;20102;-78
2021/01/27 00:48:30;;;;;;;9.55;6.50;;;;;;;2.40;61.57;100351.47;4977103;28;20019;-78
2021/01/27 00:50:56;;;;;;;10.95;7.00;;;;;;;2.41;60.53;100337.47;4976445;28;20030;-77
2021/01/27 00:53:21;;;;;;;8.80;5.85;;;;;;;2.37;60.83;100341.94;4976284;28;20023;-78
2021/01/27 00:55:47;;;;;;;10.57;6.30;;;;;;;2.45;61.39;100348.66;4976008;28;20061;-77
2021/01/27 00:58:16;;;;;;;8.60;6.50;;;;;;;2.56;60.51;100355.59;4975790;28;20033;-78
2021/01/27 01:00:42;;;;;;;8.15;6.15;;;;;;;2.53;59.69;100357.00;4975788;28;20041;-77
2021/01/27 01:03:12;;;;;;;6.50;4.70;;;;;;;2.44;59.44;100358.00;4974542;28;20058;-77
2021/01/27 01:05:40;;;;;;;9.00;5.00;;;;;;;2.45;62.08;100348.66;4959111;28;20030;-78
2021/01/27 01:08:08;;;;;;;5.65;4.80;;;;;;;2.37;62.55;100355.66;4975539;28;20031;-77
2021/01/27 01:10:57;;;;;;;4.95;4.45;;;;;;;2.19;61.66;100357.38;4974551;28;20165;-78
2021/01/27 01:13:24;;;;;;;7.57;5.38;;;;;;;2.16;62.52;100351.69;4975084;28;20089;-77
2021/01/27 01:15:51;;;;;;;5.88;4.78;;;;;;;2.17;63.36;100343.13;4976224;28;20031;-77
2021/01/27 01:18:17;;;;;;;5.55;4.28;;;;;;;2.17;62.57;100345.88;4974675;28;20402;-77
2021/01/27 01:20:42;;;;;;;5.85;4.50;;;;;;;2.23;64.24;100346.59;4974875;28;20034;-78
2021/01/27 01:23:12;;;;;;;7.63;4.60;;;;;;;2.22;62.13;100340.28;4974733;28;20034;-78
2021/01/27 01:25:37;;;;;;;7.03;4.07;;;;;;;2.26;62.79;100346.00;4974356;28;20026;-78
2021/01/27 01:28:05;;;;;;;8.20;4.20;;;;;;;2.16;63.43;100348.94;4974299;28;20109;-77
2021/01/27 01:30:32;;;;;;;4.47;3.88;;;;;;;2.13;61.80;100355.84;4958656;28;20027;-77
2021/01/27 01:33:04;;;;;;;5.22;3.60;;;;;;;2.03;62.01;100351.34;4974267;28;20061;-76
2021/01/27 01:35:30;;;;;;;6.22;3.60;;;;;;;2.06;62.24;100352.66;4974569;28;20030;-77
2021/01/27 01:37:59;;;;;;;3.55;2.88;;;;;;;2.04;61.12;100355.72;4974373;28;20081;-77
2021/01/27 01:40:34;;;;;;;4.85;3.42;;;;;;;1.99;63.00;100355.81;4974689;28;20102;-78
2021/01/27 01:43:03;;;;;;;3.80;3.38;;;;;;;2.01;62.43;100355.50;4975948;28;20087;-78
2021/01/27 01:45:30;;;;;;;6.97;3.70;;;;;;;2.04;63.44;100357.66;4975080;28;20606;-77
2021/01/27 01:48:07;;;;;;;7.95;4.03;;;;;;;2.14;62.18;100360.22;4974447;28;20034;-77
2021/01/27 01:50:32;;;;;;;6.28;3.40;;;;;;;2.09;62.41;100352.88;4974276;28;20030;-77
2021/01/27 01:52:59;;;;;;;4.07;3.50;;;;;;;2.14;61.74;100352.00;4974405;28;20082;-77
2021/01/27 01:55:26;;;;;;;3.97;3.53;;;;;;;2.06;62.22;100353.47;4979672;28;20034;-77
2021/01/27 01:57:54;;;;;;;3.38;2.95;;;;;;;2.07;61.94;100355.09;4978557;28;20034;-77
2021/01/27 02:00:23;;;;;;;5.07;3.55;;;;;;;2.03;62.92;100356.84;4978475;28;20085;-77
2021/01/27 02:02:49;;;;;;;6.53;3.30;;;;;;;2.12;63.00;100350.66;4977857;28;20031;-78
2021/01/27 02:05:23;;;;;;;2.75;2.50;;;;;;;2.05;62.38;100351.84;4978326;28;20026;-77
2021/01/27 02:07:50;;;;;;;3.58;2.60;;;;;;;2.03;62.58;100343.13;4979721;28;20019;-77
2021/01/27 02:10:17;;;;;;;3.40;2.95;;;;;;;1.94;63.01;100350.41;4979838;28;20030;-78
2021/01/27 02:12:51;;;;;;;3.25;2.95;;;;;;;1.87;61.69;100333.53;4978515;28;20359;-77
2021/01/27 02:15:42;;;;;;;3.20;2.90;;;;;;;1.94;61.57;100333.13;4978886;28;20039;-77
2021/01/27 02:18:19;;;;;;;4.60;2.90;;;;;;;1.92;61.51;100332.59;4955719;28;20033;-77
2021/01/27 02:21:10;;;;;;;5.18;3.10;;;;;;;1.91;62.07;100329.06;4977972;28;20034;-77
2021/01/27 02:24:01;;;;;;;3.55;2.72;;;;;;;1.92;61.50;100327.97;4977848;28;20027;-77
2021/01/27 02:26:49;;;;;;;3.63;2.80;;;;;;;1.92;60.84;100324.38;4977766;28;20026;-77
2021/01/27 02:29:39;;;;;;;4.32;2.92;;;;;;;1.80;61.01;100324.84;4977483;28;20022;-77
2021/01/27 02:32:17;;;;;;;3.13;2.42;;;;;;;1.76;61.90;100326.59;4977780;28;20134;-77
2021/01/27 02:34:50;;;;;;;6.53;2.65;;;;;;;1.62;62.20;100321.06;4977611;28;20390;-76
2021/01/27 02:37:23;;;;;;;4.07;3.38;;;;;;;1.56;63.73;100314.84;4978666;28;20033;-77
2021/01/27 02:39:54;;;;;;;3.60;2.73;;;;;;;1.67;62.73;100320.16;4979834;28;20022;-77
2021/01/27 02:42:37;;;;;;;3.83;3.00;;;;;;;1.63;61.94;100313.63;4978021;28;20027;-77
2021/01/27 02:45:13;;;;;;;2.42;2.22;;;;;;;1.62;61.22;100314.75;4979312;28;20059;-76
2021/01/27 02:48:00;;;;;;;4.85;2.50;;;;;;;1.66;58.59;100315.78;4977842;28;20019;-77
2021/01/27 02:50:40;;;;;;;2.40;2.15;;;;;;;1.55;59.57;100320.63;4977217;28;20082;-77
2021/01/27 02:53:19;;;;;;;2.97;2.40;;;;;;;1.55;59.53;100315.97;4977953;28;20037;-77
2021/01/27 02:55:47;;;;;;;6.25;2.15;;;;;;;1.58;58.46;100314.53;4977578;28;20023;-77
2021/01/27 02:58:24;;;;;;;4.53;2.60;;;;;;;1.50;57.49;100317.97;4979214;28;20031;-77
2021/01/27 03:01:07;;;;;;;3.03;2.75;;;;;;;1.63;56.82;100321.88;4977538;28;20394;-77
2021/01/27 03:03:42;;;;;;;3.03;2.13;;;;;;;1.60;57.26;100328.78;4978904;28;20027;-77
2021/01/27 03:06:11;;;;;;;3.20;2.47;;;;;;;1.66;56.72;100332.25;4977644;28;20031;-77
2021/01/27 03:09:01;;;;;;;2.60;2.40;;;;;;;1.66;56.50;100330.31;4977487;28;20106;-77
2021/01/27 03:11:34;;;;;;;2.85;2.25;;;;;;;1.67;56.58;100336.63;4977135;28;20053;-77
2021/01/27 03:14:00;;;;;;;3.33;2.40;;;;;;;1.68;55.70;100324.53;4977441;28;20057;-77
2021/01/27 03:16:35;;;;;;;3.25;2.55;;;;;;;1.76;56.93;100327.41;4980390;28;20049;-78
2021/01/27 03:19:34;;;;;;;2.50;2.30;;;;;;;1.75;56.42;100335.91;4978663;28;20105;-77
2021/01/27 03:22:05;;;;;;;2.20;2.00;;;;;;;1.75;56.83;100333.19;4977614;28;20031;-78
2021/01/27 03:24:38;;;;;;;2.72;2.00;;;;;;;1.78;56.66;100336.13;4977536;28;20077;-78
2021/01/27 03:27:11;;;;;;;2.33;2.13;;;;;;;1.78;56.84;100330.66;4977163;28;20481;-77
2021/01/27 03:29:39;;;;;;;3.03;2.63;;;;;;;1.71;57.92;100343.94;4976504;28;20058;-77
2021/01/27 03:32:10;;;;;;;3.22;2.33;;;;;;;1.64;58.99;100339.94;4976363;28;20051;-77
2021/01/27 03:34:40;;;;;;;3.67;2.85;;;;;;;1.63;59.72;100341.06;4976495;28;20038;-77
2021/01/27 03:37:09;;;;;;;8.15;5.97;;;;;;;1.74;59.45;100328.81;4976712;28;20034;-77
2021/01/27 03:39:40;;;;;;;5.78;5.18;;;;;;;1.68;60.29;100336.31;4977952;28;20105;-77
2021/01/27 03:42:11;;;;;;;6.35;4.53;;;;;;;1.65;60.49;100338.84;4976444;28;20029;-78
2021/01/27 03:44:48;;;;;;;5.60;4.93;;;;;;;1.78;59.87;100344.38;4978207;28;20031;-78
2021/01/27 03:47:26;;;;;;;5.75;4.93;;;;;;;1.79;60.85;100342.44;4976515;28;20482;-78
2021/01/27 03:49:59;;;;;;;5.65;4.05;;;;;;;1.80;60.05;100339.38;4976703;28;20082;-77
2021/01/27 03:52:57;;;;;;;3.83;3.38;;;;;;;1.72;60.61;100336.53;4977508;28;20125;-78
2021/01/27 03:55:30;;;;;;;4.13;3.55;;;;;;;1.69;59.96;100339.88;4976977;28;20031;-75
2021/01/27 03:58:07;;;;;;;3.70;3.40;;;;;;;1.59;60.73;100343.59;4977204;28;20106;-78
2021/01/27 04:00:36;;;;;;;4.10;3.67;;;;;;;1.48;61.77;100342.94;4977013;28;20027;-77
2021/01/27 04:03:19;;;;;;;5.63;5.13;;;;;;;1.38;62.26;100329.38;4975570;28;20036;-77
2021/01/27 04:05:45;;;;;;;9.02;5.45;;;;;;;1.37;62.56;100327.75;4975897;28;20027;-77
2021/01/27 04:08:11;;;;;;;7.65;6.88;;;;;;;1.35;61.75;100332.72;4975752;28;20105;-77
2021/01/27 04:10:37;;;;;;;8.85;6.32;;;;;;;1.41;61.01;100331.53;4975696;28;20023;-77
2021/01/27 04:13:03;;;;;;;7.40;5.78;;;;;;;1.50;60.81;100331.69;4975733;28;20105;-77
2021/01/27 04:15:29;;;;;;;12.32;9.25;;;;;;;1.40;60.77;100340.06;4975378;28;20033;-73
2021/01/27 04:17:55;;;;;;;17.73;12.40;;;;;;;1.37;60.11;100346.13;4974836;28;20026;-78
2021/01/27 04:20:22;;;;;;;16.00;10.90;;;;;;;1.28;59.99;100343.28;4975366;28;20038;-77
2021/01/27 04:22:48;;;;;;;9.40;7.68;;;;;;;1.33;60.00;100350.56;4974967;28;20122;-77
2021/01/27 04:25:14;;;;;;;11.50;6.93;;;;;;;1.19;60.25;100351.34;4976395;28;20097;-77
2021/01/27 04:27:40;;;;;;;11.63;8.45;;;;;;;1.13;59.80;100347.03;4976480;28;20018;-77
2021/01/27 04:30:12;;;;;;;14.10;9.23;;;;;;;1.10;59.63;100344.06;4974975;28;20085;-77
2021/01/27 04:32:38;;;;;;;13.40;7.55;;;;;;;1.26;59.96;100353.69;4974804;28;20046;-78
2021/01/27 04:35:06;;;;;;;6.93;5.43;;;;;;;1.26;59.18;100356.44;4976231;28;20029;-77
2021/01/27 04:37:31;;;;;;;4.90;3.40;;;;;;;1.20;58.62;100346.66;4975745;28;20029;-77
2021/01/27 04:39:57;;;;;;;5.75;4.45;;;;;;;1.20;59.63;100358.44;4974765;28;20027;-77
2021/01/27 04:42:26;;;;;;;11.70;8.10;;;;;;;1.13;60.01;100346.22;4974720;28;20110;-77
2021/01/27 04:44:57;;;;;;;17.02;12.27;;;;;;;1.02;59.25;100340.88;4974618;28;20022;-77
2021/01/27 04:47:37;;;;;;;26.50;17.00;;;;;;;0.99;59.19;100344.22;4974705;28;20113;-77
2021/01/27 04:50:20;;;;;;;23.00;16.73;;;;;;;0.96;59.65;100341.22;4975172;28;20113;-77
2021/01/27 04:53:00;;;;;;;20.15;13.63;;;;;;;1.08;59.41;100338.88;4974710;28;20462;-77
2021/01/27 04:55:52;;;;;;;15.48;11.15;;;;;;;1.18;59.42;100332.47;4974481;28;20031;-77
2021/01/27 04:58:37;;;;;;;12.75;7.15;;;;;;;1.12;59.44;100334.47;4974349;28;20050;-77
2021/01/27 05:01:16;;;;;;;7.10;4.80;;;;;;;1.09;60.02;100336.97;4974213;28;20089;-77
2021/01/27 05:03:44;;;;;;;5.22;3.58;;;;;;;1.00;59.86;100348.56;4974357;28;20370;-77
2021/01/27 05:06:19;;;;;;;8.45;3.60;;;;;;;1.03;60.35;100342.50;4974314;28;20034;-77
2021/01/27 05:09:24;;;;;;;5.45;3.60;;;;;;;0.99;59.48;100341.47;4974594;28;20466;-77
2021/01/27 05:11:53;;;;;;;2.90;2.38;;;;;;;1.02;58.58;100338.16;4974041;28;20038;-77
2021/01/27 05:14:20;;;;;;;3.08;2.40;;;;;;;0.99;58.59;100337.91;4975041;28;20026;-76
2021/01/27 05:16:50;;;;;;;3.08;2.00;;;;;;;0.87;58.75;100327.41;4974833;28;20023;-77
2021/01/27 05:19:16;;;;;;;2.40;2.20;;;;;;;0.89;58.36;100338.88;4975038;28;20117;-77
2021/01/27 05:21:55;;;;;;;2.00;1.70;;;;;;;0.89;58.03;100338.06;4975249;28;20061;-77
2021/01/27 05:24:21;;;;;;;3.42;2.15;;;;;;;0.88;58.32;100339.16;4975080;28;20031;-75
2021/01/27 05:26:53;;;;;;;3.35;1.60;;;;;;;0.90;57.06;100348.72;4975185;28;20389;-77
2021/01/27 05:29:23;;;;;;;4.55;2.00;;;;;;;1.07;57.73;100347.41;4973892;28;20398;-77
2021/01/27 05:31:59;;;;;;;3.22;1.77;;;;;;;1.19;56.78;100339.56;4994482;28;20065;-77
2021/01/27 05:34:36;;;;;;;3.38;2.70;;;;;;;1.19;55.83;100345.03;4997023;28;20045;-76
2021/01/27 05:37:30;;;;;;;3.53;2.47;;;;;;;1.11;56.24;100345.69;4997198;28;20022;-77
2021/01/27 05:40:21;;;;;;;5.90;3.92;;;;;;;0.98;54.92;100345.31;5015028;28;20392;-77
2021/01/27 05:42:47;;;;;;;3.10;2.78;;;;;;;0.91;57.95;100336.66;4996911;28;20084;-78
2021/01/27 05:45:37;;;;;;;2.72;2.53;;;;;;;0.92;58.30;100351.97;4997904;28;20034;-78
2021/01/27 05:48:32;;;;;;;6.90;3.78;;;;;;;0.88;59.11;100359.16;5015970;28;20092;-78
2021/01/27 05:51:01;;;;;;;5.15;3.35;;;;;;;0.92;59.13;100351.19;5015118;28;20100;-77
2021/01/27 05:53:31;;;;;;;7.60;3.67;;;;;;;0.99;57.94;100357.91;4997505;28;20037;-78
2021/01/27 05:56:15;;;;;;;12.23;6.55;;;;;;;0.85;58.93;100357.00;4997202;28;20029;-77
2021/01/27 05:58:43;;;;;;;;;;;;;;;0.83;58.76;100364.69;4997333;28;20080;-77
2021/01/27 06:01:13;;;;;;;9.93;6.60;;;;;;;0.73;58.36;100353.88;5014424;28;19941;-77
2021/01/27 06:04:08;;;;;;;13.25;6.65;;;;;;;0.71;58.30;100364.31;4996376;28;20049;-77
2021/01/27 06:06:36;;;;;;;8.90;5.80;;;;;;;0.66;58.87;100370.66;4982632;28;20034;-77
2021/01/27 06:09:05;;;;;;;7.88;5.65;;;;;;;0.64;59.23;100363.84;4996115;28;20555;-77
2021/01/27 06:11:32;;;;;;;10.07;6.88;;;;;;;0.66;58.81;100370.66;4996091;28;20432;-76
2021/01/27 06:14:08;;;;;;;8.00;6.32;;;;;;;0.75;57.96;100373.59;4996022;28;20030;-77
2021/01/27 06:16:43;;;;;;;8.40;5.20;;;;;;;0.88;56.79;100363.81;4995834;28;20037;-77
2021/01/27 06:19:15;;;;;;;6.97;4.57;;;;;;;0.88;57.25;100361.91;4995813;28;20057;-77
2021/01/27 06:22:26;;;;;;;5.97;4.40;;;;;;;0.75;59.37;100368.09;4995769;28;20065;-77
2021/01/27 06:24:58;;;;;;;8.05;4.53;;;;;;;0.76;60.34;100369.72;4995832;28;20442;-77
2021/01/27 06:27:29;;;;;;;11.90;4.82;;;;;;;1.03;60.45;100374.59;4995789;28;20036;-77
2021/01/27 06:30:16;;;;;;;5.43;4.00;;;;;;;1.99;57.51;100365.97;5013468;28;20025;-77
2021/01/27 06:33:14;;;;;;;9.32;4.53;;;;;;;2.78;55.25;100374.09;5013584;28;20046;-77
2021/01/27 06:36:01;;;;;;;4.57;3.70;;;;;;;3.59;53.10;100385.25;4979137;28;20489;-77
2021/01/27 06:38:49;;;;;;;12.45;8.75;;;;;;;4.33;50.61;100369.06;4996034;28;20038;-74
2021/01/27 06:41:32;;;;;;;45.17;24.88;;;;;;;5.02;47.58;100373.19;5000309;28;20040;-77
2021/01/27 06:44:25;;;;;;;66.32;39.42;;;;;;;5.67;45.00;100373.09;4999672;28;20057;-77
2021/01/27 06:47:13;;;;;;;32.08;20.08;;;;;;;6.15;43.25;100368.50;5000085;28;20037;-77
2021/01/27 06:49:59;;;;;;;16.88;11.55;;;;;;;6.53;42.90;100372.13;5001101;28;20026;-77
2021/01/27 06:52:34;;;;;;;13.07;9.18;;;;;;;7.05;42.04;100371.06;5000316;28;20045;-77
2021/01/27 06:55:08;;;;;;;10.25;7.00;;;;;;;7.46;40.78;100366.75;4999922;28;20396;-77
2021/01/27 06:57:50;;;;;;;10.32;6.25;;;;;;;8.01;39.96;100371.13;5000007;28;20030;-77
2021/01/27 07:00:27;;;;;;;11.60;6.30;;;;;;;8.54;39.23;100359.16;5001003;28;20022;-76
2021/01/27 07:02:58;;;;;;;10.55;6.00;;;;;;;9.06;38.31;100369.59;5001164;28;20029;-77
2021/01/27 07:05:54;;;;;;;10.18;6.03;;;;;;;9.68;37.49;100359.97;5001624;28;20030;-75
2021/01/27 07:09:04;;;;;;;6.75;5.80;;;;;;;10.26;36.10;100367.97;5001960;28;20025;-77
2021/01/27 07:11:56;;;;;;;9.07;5.97;;;;;;;10.81;33.79;100374.53;4924165;29;20494;-76
2021/01/27 07:14:38;;;;;;;9.15;6.63;;;;;;;11.31;33.34;100372.97;5001563;28;20038;-76
2021/01/27 07:17:03;;;;;;;10.38;6.80;;;;;;;11.65;33.24;100387.22;5003019;28;20029;-78
2021/01/27 07:19:56;;;;;;;9.93;7.10;;;;;;;11.94;33.93;100386.72;5003811;28;20029;-75
2021/01/27 07:22:25;;;;;;;14.48;9.18;;;;;;;12.16;33.62;100398.28;5003539;28;20026;-78
2021/01/27 07:25:12;;;;;;;31.55;19.02;;;;;;;11.33;32.24;100406.81;5001913;28;20076;-75
2021/01/27 07:27:51;;;;;;;21.48;15.93;;;;;;;11.91;32.59;100401.38;5002472;28;20540;-76
2021/01/27 07:30:27;;;;;;;44.75;17.33;;;;;;;11.84;32.80;100398.44;5009371;28;20075;-75
2021/01/27 07:32:59;;;;;;;20.50;13.82;;;;;;;12.10;33.41;100410.91;4985634;28;20102;-76
2021/01/27 07:35:29;;;;;;;23.35;12.90;;;;;;;12.33;32.60;100417.34;4978679;28;20089;-72
2021/01/27 07:38:07;;;;;;;23.50;11.25;;;;;;;12.51;31.58;100412.09;4977098;28;20066;-74
2021/01/27 07:41:00;;;;;;;20.70;11.27;;;;;;;12.95;30.32;100423.69;4979159;28;20031;-76
2021/01/27 07:43:49;;;;;;;15.68;10.48;;;;;;;13.24;29.64;100418.56;4981229;28;20034;-75
2021/01/27 07:46:29;;;;;;;16.55;9.57;;;;;;;13.31;28.83;100419.47;4979866;28;20029;-73
2021/01/27 07:49:01;;;;;;;17.75;10.75;;;;;;;13.05;27.42;100411.06;4979617;28;20019;-74
2021/01/27 07:51:32;;;;;;;16.98;14.45;;;;;;;13.08;26.95;100411.13;4977228;28;20390;-75
2021/01/27 07:54:03;;;;;;;13.02;7.05;;;;;;;13.14;26.53;100408.00;4979008;28;20085;-72
2021/01/27 07:56:43;;;;;;;12.15;7.38;;;;;;;13.00;26.77;100409.41;4976043;28;20067;-72
2021/01/27 07:59:19;;;;;;;11.75;8.23;;;;;;;12.98;28.16;100408.13;4975143;28;20067;-71
2021/01/27 08:01:48;;;;;;;24.75;17.88;;;;;;;12.76;27.77;100415.34;4976731;28;20052;-75
2021/01/27 08:04:22;;;;;;;17.73;15.13;;;;;;;13.11;28.78;100407.59;4977871;28;20062;-75
2021/01/27 08:06:51;;;;;;;16.25;10.57;;;;;;;11.82;28.85;100411.91;4988594;28;20106;-75
2021/01/27 08:09:37;;;;;;;18.27;13.35;;;;;;;12.34;28.65;100418.97;4976492;28;20080;-75
2021/01/27 08:12:28;;;;;;;8.40;7.30;;;;;;;11.63;28.41;100417.47;4976474;28;20564;-75
2021/01/27 08:15:26;;;;;;;16.50;12.27;;;;;;;11.34;27.69;100422.34;4975281;28;20030;-74
2021/01/27 08:17:54;;;;;;;9.40;7.93;;;;;;;11.16;27.34;100418.34;4896069;28;20050;-79
2021/01/27 08:20:25;;;;;;;14.13;8.18;;;;;;;11.38;26.64;100420.47;4976625;28;20473;-80
2021/01/27 08:23:16;;;;;;;4.72;3.97;;;;;;;11.89;25.08;100411.28;4976734;28;20022;-80
2021/01/27 08:25:58;;;;;;;4.47;3.83;;;;;;;11.76;24.15;100413.34;4936662;28;20433;-79
2021/01/27 08:32:31;;;;;;;9.98;8.20;;;;;;;11.84;23.65;100414.38;4907713;29;20052;-77
2021/01/27 08:35:35;;;;;;;9.80;5.75;;;;;;;12.01;24.30;100409.16;4994275;28;20551;-80
2021/01/27 08:38:28;;;;;;;8.63;6.45;;;;;;;11.96;24.29;100406.66;4971877;28;20038;-80
2021/01/27 08:40:57;;;;;;;5.82;4.45;;;;;;;11.77;24.50;100409.38;4993889;28;20030;-80
2021/01/27 08:44:00;;;;;;;13.15;9.27;;;;;;;11.69;23.98;100413.22;4994910;28;20088;-80
2021/01/27 08:46:45;;;;;;;6.82;5.38;;;;;;;12.48;23.79;100426.81;4993853;28;20037;-80
2021/01/27 08:49:31;;;;;;;6.45;5.28;;;;;;;12.61;24.22;100430.22;4993615;28;20030;-80
2021/01/27 08:51:57;;;;;;;10.52;6.13;;;;;;;12.75;23.35;100425.72;4994118;28;20022;-75
2021/01/27 08:54:27;;;;;;;8.95;4.65;;;;;;;13.29;23.85;100429.44;4994916;28;20029;-73
2021/01/27 08:57:18;;;;;;;7.88;4.72;;;;;;;13.45;22.38;100423.69;4994941;28;20388;-75
2021/01/27 08:59:50;;;;;;;7.80;6.07;;;;;;;13.93;22.65;100430.34;4994821;28;20037;-74
2021/01/27 09:02:39;;;;;;;9.77;5.85;;;;;;;14.28;22.66;100437.59;4994273;28;20026;-74
2021/01/27 09:05:31;;;;;;;10.15;6.38;;;;;;;14.26;22.74;100439.94;4994163;28;20420;-75
2021/01/27 09:08:00;;;;;;;8.50;4.68;;;;;;;14.63;21.94;100440.81;4983801;28;20042;-75
2021/01/27 09:10:40;;;;;;;5.00;4.03;;;;;;;14.58;21.85;100446.75;4994923;28;20087;-75
2021/01/27 09:13:31;;;;;;;4.90;3.08;;;;;;;14.78;21.04;100449.34;4994009;28;20087;-75
2021/01/27 09:16:01;;;;;;;2.95;2.67;;;;;;;14.38;20.23;100431.28;4993780;28;20409;-75
2021/01/27 09:18:27;;;;;;;6.63;3.05;;;;;;;14.76;20.24;100443.34;4993763;28;20033;-75
2021/01/27 09:20:53;;;;;;;2.60;2.28;;;;;;;14.24;19.66;100443.16;4994000;28;20026;-75
2021/01/27 09:23:20;;;;;;;5.43;3.60;;;;;;;14.53;19.50;100447.09;4996182;28;20031;-75
2021/01/27 09:25:51;;;;;;;4.00;3.60;;;;;;;14.46;19.43;100449.78;4994420;28;20112;-76
2021/01/27 09:28:24;;;;;;;3.70;2.35;;;;;;;14.30;19.57;100447.22;4994776;28;20028;-73
2021/01/27 09:30:55;;;;;;;3.65;2.90;;;;;;;14.07;18.68;100447.34;4995914;28;20497;-76
2021/01/27 09:33:34;;;;;;;2.42;2.00;;;;;;;13.33;17.94;100444.28;5000635;28;20041;-75
2021/01/27 09:36:27;;;;;;;3.58;2.50;;;;;;;13.97;19.66;100442.41;5001311;28;20053;-76
2021/01/27 09:38:56;;;;;;;7.35;5.55;;;;;;;14.23;19.10;100435.13;4989517;28;20044;-76
2021/01/27 09:41:28;;;;;;;2.75;2.22;;;;;;;13.28;17.73;100439.00;5014546;28;20468;-75
2021/01/27 09:43:55;;;;;;;2.35;2.15;;;;;;;13.06;17.17;100430.25;4996721;28;20109;-74
2021/01/27 09:46:34;;;;;;;2.05;1.80;;;;;;;13.73;17.57;100434.47;4997387;28;20034;-75
2021/01/27 09:49:12;;;;;;;4.88;4.05;;;;;;;13.78;18.94;100431.34;4996779;28;20040;-76
2021/01/27 09:51:42;;;;;;;4.05;3.67;;;;;;;13.63;18.24;100425.56;4996769;28;20033;-73
2021/01/27 09:54:09;;;;;;;4.65;4.10;;;;;;;14.21;19.95;100420.69;5014465;28;20030;-76
2021/01/27 09:56:35;;;;;;;8.85;6.90;;;;;;;14.45;18.89;100420.19;4996205;28;20040;-75
2021/01/27 09:59:02;;;;;;;8.02;5.55;;;;;;;13.75;17.14;100424.53;4996029;28;20077;-75
2021/01/27 10:01:31;;;;;;;5.88;3.85;;;;;;;13.36;16.10;100412.75;4996228;28;20030;-75
2021/01/27 10:04:13;;;;;;;9.70;7.43;;;;;;;13.85;18.15;100414.69;4996320;28;20030;-74
2021/01/27 10:06:52;;;;;;;8.85;7.10;;;;;;;14.42;17.74;100420.94;5014097;28;20113;-75
2021/01/27 10:09:31;;;;;;;10.30;8.55;;;;;;;15.03;18.07;100404.78;4996351;28;20054;-76
2021/01/27 10:12:00;;;;;;;9.13;6.85;;;;;;;15.61;17.06;100407.59;5013767;28;20033;-76
2021/01/27 10:14:31;;;;;;;4.85;3.22;;;;;;;16.00;16.27;100401.41;4996555;28;20030;-75
2021/01/27 10:17:02;;;;;;;4.10;3.63;;;;;;;16.42;16.62;100405.56;4983459;28;20469;-75
2021/01/27 10:19:33;;;;;;;4.30;3.63;;;;;;;16.47;15.63;100400.34;4999143;28;20037;-75
2021/01/27 10:22:01;;;;;;;6.55;3.47;;;;;;;16.87;15.97;100397.63;4999394;28;20038;-76
2021/01/27 10:24:51;;;;;;;3.20;2.90;;;;;;;16.63;15.64;100394.38;5017259;28;20022;-74
2021/01/27 10:27:18;;;;;;;2.33;2.10;;;;;;;16.98;14.80;100393.59;5017145;28;20033;-76
2021/01/27 10:29:44;;;;;;;3.55;3.10;;;;;;;16.88;15.62;100396.41;4999251;28;20033;-75
2021/01/27 10:32:39;;;;;;;2.33;2.10;;;;;;;17.38;15.64;100390.78;4984400;28;20420;-76
2021/01/27 10:35:19;;;;;;;2.00;1.80;;;;;;;17.40;15.02;100391.16;4974393;28;20125;-75
2021/01/27 10:37:45;;;;;;;2.67;2.25;;;;;;;16.96;14.63;100389.59;4976194;28;20088;-76
2021/01/27 10:40:27;;;;;;;3.25;2.55;;;;;;;16.52;15.31;100379.50;4976394;28;20113;-75
2021/01/27 10:42:55;;;;;;;2.78;2.28;;;;;;;16.57;14.30;100390.34;4976245;28;20490;-75
2021/01/27 10:45:32;;;;;;;2.05;1.73;;;;;;;16.64;13.63;100373.50;4976318;28;20138;-75
2021/01/27 10:48:10;;;;;;;1.98;1.80;;;;;;;16.55;14.10;100375.06;4976775;28;20034;-76
2021/01/27 10:50:41;;;;;;;2.30;1.85;;;;;;;16.51;14.06;100375.06;4976546;28;20082;-76
2021/01/27 10:53:09;;;;;;;2.80;2.42;;;;;;;16.81;14.02;100371.13;4976116;28;20454;-76
2021/01/27 10:55:37;;;;;;;3.40;2.95;;;;;;;16.62;14.44;100375.06;4976137;28;20049;-76
2021/01/27 10:58:03;;;;;;;2.63;2.25;;;;;;;16.76;14.35;100364.69;4977392;28;20030;-73
2021/01/27 11:00:29;;;;;;;3.35;1.92;;;;;;;16.48;14.86;100361.84;4976429;28;20023;-75
2021/01/27 11:02:54;;;;;;;2.83;2.13;;;;;;;16.80;14.12;100352.66;4976574;28;20038;-76
2021/01/27 11:05:20;;;;;;;3.13;2.80;;;;;;;16.11;14.04;100346.09;4975760;28;20149;-76
2021/01/27 11:07:46;;;;;;;6.78;4.05;;;;;;;16.07;14.12;100341.69;4975775;28;20030;-75
2021/01/27 11:10:12;;;;;;;3.35;2.63;;;;;;;15.26;14.40;100340.06;4975613;28;20117;-75
2021/01/27 11:12:37;;;;;;;4.00;2.92;;;;;;;14.38;14.56;100331.34;4975466;28;20034;-76
2021/01/27 11:15:04;;;;;;;4.57;3.83;;;;;;;14.27;15.43;100340.81;4975906;28;20042;-74
2021/01/27 11:17:29;;;;;;;4.00;2.60;;;;;;;14.47;16.06;100330.22;4977068;28;20031;-75
2021/01/27 11:19:55;;;;;;;2.70;2.50;;;;;;;13.97;15.04;100324.91;4976004;28;20045;-76
2021/01/27 11:22:23;;;;;;;4.40;3.00;;;;;;;14.21;15.61;100320.75;4975869;28;20113;-76
2021/01/27 11:24:48;;;;;;;3.03;2.72;;;;;;;14.30;16.05;100314.88;4975807;28;20050;-76
2021/01/27 11:27:14;;;;;;;13.00;10.68;;;;;;;14.39;16.28;100318.97;4975698;28;20030;-75
2021/01/27 11:29:40;;;;;;;25.55;19.48;;;;;;;13.97;15.47;100324.91;4975851;28;20026;-76
2021/01/27 11:32:06;;;;;;;3.47;3.17;;;;;;;13.60;15.19;100325.66;4998499;28;20057;-75
2021/01/27 11:34:31;;;;;;;9.05;7.05;;;;;;;13.71;14.63;100325.00;4998323;28;20080;-74
2021/01/27 11:36:57;;;;;;;3.15;2.47;;;;;;;13.98;14.97;100317.31;4998365;28;20085;-73
2021/01/27 11:39:22;;;;;;;5.25;3.42;;;;;;;14.18;15.75;100321.53;5015783;28;20030;-76
2021/01/27 11:41:48;;;;;;;2.05;1.92;;;;;;;13.42;13.60;100313.44;4998403;28;20030;-73
2021/01/27 11:44:14;;;;;;;8.77;6.05;;;;;;;13.08;13.11;100287.41;4998486;28;20049;-72
2021/01/27 11:46:39;;;;;;;13.63;7.55;;;;;;;13.30;14.50;100306.09;4998365;28;20037;-75
2021/01/27 11:49:05;;;;;;;6.72;5.13;;;;;;;12.80;15.10;100304.53;4998118;28;20049;-75
2021/01/27 11:51:30;;;;;;;2.80;2.60;;;;;;;12.92;14.42;100304.31;4998293;28;20034;-76
2021/01/27 11:53:56;;;;;;;2.83;2.13;;;;;;;13.51;14.19;100300.00;5016375;28;20105;-75
2021/01/27 11:56:22;;;;;;;2.17;1.48;;;;;;;13.74;13.60;100296.25;4998110;28;20123;-72
2021/01/27 11:58:47;;;;;;;5.28;3.45;;;;;;;13.52;15.95;100300.78;4998686;28;20041;-75
2021/01/27 12:01:13;;;;;;;2.22;1.73;;;;;;;13.90;15.10;100288.44;5015469;28;20481;-75
2021/01/27 12:03:38;;;;;;;4.38;2.97;;;;;;;13.59;15.12;100292.50;4997841;28;20057;-72